Latest Weather Observations for Canberra

IDN60801

Issued at 10:02 pm EST Thursday 30 July 2015 (issued every 30 minutes, with the page automatically refreshed every 10 minutes)

About weather observations | Map of weather stations | Latest weather observations for NSW | Other Formats
Station Details ID: 070351 Name: CANBERRA AIRPORT Lat: -35.31 Lon: 149.20 Height: 577.05 m
Data from the previous 72 hours. | See also: Recent months at Canberra
Date/Time
EST
Temp
°C
App
Temp
°C
Dew
Point
Rel
Hum
%
Delta-T
°C
Wind Press
QNH
hPa
Press
MSL
hPa
Rain
since 9 am
mm
Dir
 
Spd
km/h
Gust
km/h
Spd
kts
Gust
kts
30/10:00pm 7.5 0.6 2.8 72 2.0 N 28 32 15 17 1019.4 - 0.0
30/09:30pm 7.5 1.8 3.0 73 2.0 NNW 22 32 12 17 1019.5 - 0.0
30/09:00pm 7.0 0.9 2.9 75 1.8 N 24 30 13 16 1019.3 1020.6 0.0
30/08:30pm 6.3 1.0 2.8 78 1.5 N 20 30 11 16 1019.7 - 0.0
30/08:00pm 7.1 2.0 3.0 75 1.8 NNW 19 24 10 13 1019.8 - 0.0
30/07:30pm 7.1 1.4 3.0 75 1.8 NNW 22 30 12 16 1019.6 - 0.0
30/07:00pm 7.1 -0.2 2.6 73 1.9 NNW 30 39 16 21 1019.6 - 0.0
30/06:30pm 7.9 0.7 2.8 70 2.2 NW 30 37 16 20 1020.0 - 0.0
30/05:30pm 7.8 2.4 2.3 68 2.4 NW 20 28 11 15 1019.8 - 0.0
30/05:00pm 8.3 1.7 1.9 64 2.7 NW 26 35 14 19 1020.0 - 0.0
30/04:30pm 9.0 1.6 1.9 61 3.1 NW 30 39 16 21 1020.1 - 0.0
30/04:00pm 10.3 2.6 2.2 57 3.6 NW 32 41 17 22 1019.9 - 0.0
30/03:30pm 9.8 2.5 2.2 59 3.3 NNW 30 37 16 20 1019.9 - 0.0
30/03:00pm 9.9 2.6 2.3 59 3.3 NNW 30 39 16 21 1020.3 1021.7 0.0
30/02:30pm 10.7 2.8 2.3 56 3.7 NNW 33 44 18 24 1020.6 - 0.0
30/02:00pm 10.3 3.0 2.2 57 3.6 NNW 30 41 16 22 1021.2 - 0.0
30/01:30pm 10.3 2.3 1.9 56 3.7 NNW 33 41 18 22 1021.7 - 0.0
30/12:30pm 10.4 2.2 2.5 58 3.5 NNW 35 46 19 25 1022.5 - 0.0
30/12:00pm 11.5 4.0 3.5 58 3.6 NW 32 41 17 22 1022.8 1024.2 0.0
30/11:30am 10.7 2.9 2.8 58 3.5 NNW 33 43 18 23 1023.4 - 0.0
30/11:00am 10.5 2.9 2.8 59 3.4 NNW 32 41 17 22 1023.5 - 0.0
30/10:30am 10.1 2.6 3.2 62 3.1 NNW 32 41 17 22 1023.8 - 0.0
30/10:00am 9.5 2.9 2.1 60 3.2 NW 26 35 14 19 1024.1 - 0.0
30/09:30am 8.9 1.6 2.5 64 2.8 NW 30 39 16 21 1024.3 - 0.0
30/09:00am 8.0 2.0 3.3 72 2.1 NW 24 30 13 16 1024.8 1026.2 0.0
30/08:30am 6.3 3.6 2.8 78 1.5 NW 6 13 3 7 1025.0 - 0.0
30/08:00am 4.2 1.2 1.7 84 1.0 SW 7 13 4 7 1025.1 - 0.0
30/07:30am 3.8 -1.5 2.0 88 0.7 N 19 20 10 11 1025.0 - 0.0
30/07:00am -0.8 -4.6 -0.9 99 0.0 SE 9 11 5 6 1025.0 - 0.0
30/06:30am -0.4 -4.2 -0.5 99 0.0 S 9 9 5 5 1024.9 - 0.0
30/06:00am -1.4 -5.3 -1.7 98 0.0 S 9 13 5 7 1024.9 1026.3 0.0
30/05:30am -1.6 -4.3 -2.2 96 0.1 SSE 2 7 1 4 1025.0 - 0.0
30/05:00am -0.9 -3.1 -1.3 97 0.1 CALM 0 0 0 0 1025.2 - 0.0
30/04:30am -0.9 -3.1 -1.2 98 0.1 CALM 0 0 0 0 1025.6 - 0.0
30/04:00am -1.2 -3.4 -1.5 98 0.1 CALM 0 0 0 0 1025.9 - 0.0
30/03:30am -2.0 -5.1 -2.8 94 0.2 SE 4 7 2 4 1026.3 - 0.0
30/03:00am -0.3 -2.4 -0.6 98 0.1 CALM 0 6 0 3 1026.7 1028.1 0.0
30/02:30am -0.7 -2.9 -1.3 96 0.2 CALM 0 0 0 0 1026.9 - 0.0
30/02:00am -0.8 -3.1 -2.1 91 0.4 CALM 0 0 0 0 1027.3 - 0.0
30/01:30am 0.6 -1.5 -0.5 92 0.4 CALM 0 0 0 0 1027.5 - 0.0
30/01:00am 1.0 -1.0 -0.3 91 0.5 CALM 0 0 0 0 1027.8 - 0.0
30/12:30am 1.3 -0.7 0.0 91 0.5 CALM 0 0 0 0 1027.9 - 0.0
30/12:00am 0.9 -1.1 -0.4 91 0.5 CALM 0 0 0 0 1028.3 1029.8 0.0
 
Date/Time
EST
Temp
°C
App
Temp
°C
Dew
Point
Rel
Hum
%
Delta-T
°C
Wind Press
QNH
hPa
Press
MSL
hPa
Rain
since 9 am
mm
Dir
 
Spd
km/h
Gust
km/h
Spd
kts
Gust
kts
29/11:30pm 2.1 0.2 0.6 90 0.6 CALM 0 6 0 3 1028.6 - 0.0
29/11:00pm 1.4 -2.4 -0.8 85 0.8 E 9 11 5 6 1029.0 - 0.0
29/10:30pm 2.8 0.1 0.4 84 0.9 E 4 6 2 3 1029.2 - 0.0
29/10:00pm 2.6 0.7 0.3 85 0.9 CALM 0 6 0 3 1029.3 - 0.0
29/09:30pm 3.5 1.6 0.6 81 1.1 CALM 0 9 0 5 1029.1 - 0.0
29/09:00pm 3.3 1.5 1.0 85 0.9 CALM 0 0 0 0 1029.3 1030.8 0.0
29/08:30pm 4.8 1.2 0.9 76 1.6 NE 9 9 5 5 1029.2 - 0.0
29/08:00pm 4.8 1.5 0.4 73 1.8 N 7 9 4 5 1029.7 - 0.0
29/07:30pm 6.3 2.8 1.2 70 2.1 NNW 9 11 5 6 1029.7 - 0.0
29/07:00pm 6.5 2.6 1.0 68 2.3 NW 11 15 6 8 1029.5 - 0.0
29/06:30pm 6.8 3.4 1.9 71 2.1 N 9 11 5 6 1029.3 - 0.0
29/06:00pm 6.9 3.1 2.0 71 2.1 N 11 13 6 7 1029.3 1030.8 0.0
29/05:30pm 7.0 2.8 1.7 69 2.2 N 13 15 7 8 1029.4 - 0.0
29/05:00pm 8.5 4.3 1.9 63 2.8 N 13 15 7 8 1028.9 - 0.0
29/04:30pm 9.8 4.2 1.5 56 3.6 N 20 24 11 13 1029.1 - 0.0
29/04:00pm 10.9 4.4 0.6 49 4.4 NNW 24 30 13 16 1029.5 - 0.0
29/03:30pm 10.9 4.4 0.6 49 4.4 NNW 24 30 13 16 1029.6 - 0.0
29/03:00pm 11.1 5.0 0.2 47 4.6 NW 22 28 12 15 1029.7 1031.2 0.0
29/02:30pm 11.9 5.5 1.0 47 4.7 NW 24 30 13 16 1029.8 - 0.0
29/02:00pm 11.8 5.3 0.3 45 4.9 NW 24 35 13 19 1030.0 - 0.0
29/01:30pm 12.1 6.4 0.8 46 4.9 NNW 20 32 11 17 1030.7 - 0.0
29/01:00pm 11.9 5.6 1.8 50 4.5 NW 24 32 13 17 1031.3 - 0.0
29/12:30pm 11.9 6.5 2.6 53 4.2 WNW 20 28 11 15 1031.9 - 0.0
29/12:00pm 10.6 7.4 2.9 59 3.4 W 9 19 5 10 1032.7 1034.2 0.0
29/11:30am 9.6 6.6 2.2 60 3.2 N 7 11 4 6 1033.3 - 0.0
29/11:00am 8.6 5.9 2.8 67 2.5 NNW 6 9 3 5 1033.7 - 0.0
29/10:30am 6.9 4.1 2.0 71 2.1 W 6 9 3 5 1034.2 - 0.0
29/10:00am 6.6 3.9 2.5 75 1.8 NNW 6 7 3 4 1034.5 - 0.0
29/09:30am 4.8 2.9 2.7 86 0.9 W 2 7 1 4 1034.4 - 0.0
29/09:00am 2.8 1.0 1.3 90 0.6 CALM 0 0 0 0 1034.6 1036.1 0.0
29/08:30am 1.0 -0.9 0.6 97 0.2 CALM 0 0 0 0 1034.8 - 0.0
29/08:00am -0.8 -3.7 -1.1 98 0.1 ENE 4 7 2 4 1034.7 - 0.0
29/07:40am -2.2 -5.3 -2.3 99 -0.1 N 4 9 2 5 1034.6 - 0.0
29/07:30am -2.9 -7.0 -3.2 98 0.0 N 9 9 5 5 1034.4 - 0.0
29/07:17am -3.0 -6.7 -3.3 98 0.0 NNW 7 7 4 4 1034.4 - 0.0
29/07:06am -3.0 -5.8 -3.4 97 0.0 N 2 7 1 4 1034.2 - 0.0
29/07:00am -2.9 -5.3 -3.3 97 0.0 CALM 0 0 0 0 1034.2 - 0.0
29/06:30am -2.0 -4.7 -2.3 98 0.0 N 2 6 1 3 1033.9 - 0.0
29/06:00am -3.3 -6.5 -3.7 97 0.0 W 4 9 2 5 1033.5 1035.1 0.0
29/05:30am -2.3 -4.7 -2.8 96 0.1 CALM 0 0 0 0 1033.2 - 0.0
29/05:00am -0.9 -4.2 -1.0 99 0.0 N 6 7 3 4 1033.1 - 0.0
29/04:30am -0.9 -3.1 -1.2 98 0.1 CALM 0 0 0 0 1033.1 - 0.0
29/04:00am -1.4 -4.0 -2.0 96 0.1 N 2 7 1 4 1033.3 - 0.0
29/03:30am -0.9 -3.1 -1.2 98 0.1 CALM 0 4 0 2 1033.0 - 0.0
29/03:00am -0.1 -3.3 -0.5 97 0.1 N 6 7 3 4 1033.1 1034.6 0.0
29/02:30am 0.6 -2.5 0.0 96 0.2 N 6 7 3 4 1033.1 - 0.0
29/02:00am 0.9 -1.4 0.3 96 0.2 SE 2 6 1 3 1033.3 - 0.0
29/01:30am 1.2 -2.0 0.6 96 0.2 S 7 9 4 5 1033.3 - 0.0
29/01:00am 1.6 -1.3 1.3 98 0.1 ESE 6 7 3 4 1033.1 - 0.0
29/12:30am 1.8 -0.3 1.4 97 0.2 ENE 2 6 1 3 1033.3 - 0.0
29/12:00am 1.5 -2.1 0.5 93 0.4 N 9 9 5 5 1033.3 1034.8 0.0
 
Date/Time
EST
Temp
°C
App
Temp
°C
Dew
Point
Rel
Hum
%
Delta-T
°C
Wind Press
QNH
hPa
Press
MSL
hPa
Rain
since 9 am
mm
Dir
 
Spd
km/h
Gust
km/h
Spd
kts
Gust
kts
28/11:30pm 2.4 0.7 1.8 96 0.2 CALM 0 0 0 0 1033.1 - 0.0
28/11:00pm 1.7 -1.4 1.3 97 0.2 SE 7 7 4 4 1033.2 - 0.0
28/10:30pm 0.3 -3.1 -0.8 92 0.4 WSW 7 7 4 4 1033.1 - 0.0
28/10:00pm 1.2 -2.5 -0.1 91 0.5 N 9 13 5 7 1033.0 - 0.0
28/09:30pm 1.4 -2.3 -0.1 90 0.6 E 9 9 5 5 1033.2 - 0.0
28/09:00pm 2.4 -1.1 1.4 93 0.4 S 9 13 5 7 1033.2 1034.7 0.0
28/08:30pm 4.8 2.0 2.2 83 1.1 NE 6 11 3 6 1032.7 - 0.0
28/08:00pm 4.1 0.3 1.5 83 1.1 NE 11 13 6 7 1032.4 - 0.0
28/07:30pm 5.7 2.0 2.5 80 1.4 N 11 13 6 7 1032.0 - 0.0
28/07:00pm 6.3 2.6 2.4 76 1.7 NNE 11 13 6 7 1031.9 - 0.0
28/06:30pm 6.4 2.3 2.1 74 1.8 N 13 17 7 9 1031.6 - 0.0
28/06:00pm 7.4 3.3 2.5 71 2.1 NNE 13 15 7 8 1031.4 1032.9 0.0
28/05:30pm 7.9 3.8 2.2 67 2.4 NNW 13 17 7 9 1031.1 - 0.0
28/05:00pm 9.9 5.4 2.3 59 3.3 N 15 17 8 9 1030.7 - 0.0
28/04:30pm 11.3 6.7 1.8 52 4.2 NNW 15 17 8 9 1030.6 - 0.0
28/04:00pm 12.2 8.1 2.1 50 4.5 NNW 13 19 7 10 1030.6 - 0.0
28/03:30pm 12.5 8.3 1.5 47 4.9 NW 13 17 7 9 1030.4 - 0.0
28/03:00pm 12.3 8.0 1.3 47 4.8 NW 13 17 7 9 1030.7 1032.2 0.0
28/02:30pm 12.0 8.1 1.1 47 4.7 NW 11 17 6 9 1030.7 - 0.0
28/02:00pm 11.9 7.8 0.1 44 5.0 NW 11 15 6 8 1030.8 - 0.0
28/01:30pm 12.0 8.4 0.8 46 4.8 WNW 9 15 5 8 1031.0 - 0.0
28/01:00pm 11.7 7.8 1.4 49 4.5 W 11 15 6 8 1031.4 - 0.0
28/12:30pm 10.8 7.1 0.2 48 4.5 WNW 9 17 5 9 1031.9 - 0.0
28/12:00pm 10.5 7.2 2.4 57 3.5 WSW 9 13 5 7 1032.4 1033.9 0.0
28/11:30am 9.4 6.5 2.7 63 3.0 W 7 11 4 6 1032.9 - 0.0
28/11:00am 8.3 5.5 2.3 66 2.6 W 6 9 3 5 1033.2 - 0.0
28/10:30am 7.2 4.5 2.5 72 2.0 NW 6 9 3 5 1033.4 - 0.0
28/10:00am 5.9 3.2 2.5 79 1.4 WNW 6 9 3 5 1033.6 - 0.0
28/09:30am 4.5 1.5 1.9 83 1.1 NNW 7 9 4 5 1033.6 - 0.0
28/09:00am 2.7 0.8 0.8 87 0.7 CALM 0 6 0 3 1033.5 1035.1 0.0
28/08:30am 0.9 -2.2 -0.1 93 0.4 N 6 9 3 5 1033.2 - 0.0
28/08:00am -1.2 -4.7 -1.6 97 0.1 S 7 11 4 6 1032.8 - 0.0
28/07:30am -3.4 -7.0 -3.9 96 0.0 S 6 9 3 5 1032.2 - 0.0
28/07:00am -3.5 -7.3 -3.9 97 0.0 SE 7 11 4 6 1031.8 - 0.0
28/06:30am -3.6 -7.4 -4.1 96 0.0 SSW 7 9 4 5 1031.4 - 0.0
28/06:00am -3.5 -7.1 -4.0 96 0.0 E 6 7 3 4 1031.0 1032.5 0.0
28/05:30am -2.9 -6.1 -3.6 95 0.1 WSW 4 6 2 3 1030.9 - 0.0
28/05:00am -2.1 -5.8 -2.6 96 0.1 SE 7 9 4 5 1030.6 - 0.0
28/04:30am -2.6 -7.1 -3.4 94 0.2 SE 11 13 6 7 1030.3 - 0.0
28/04:00am -2.7 -6.5 -4.1 90 0.3 S 7 9 4 5 1029.9 - 0.0
28/03:30am 1.0 -1.1 -0.5 90 0.6 CALM 0 0 0 0 1029.7 - 0.0
28/03:00am 1.2 -2.0 -0.6 88 0.7 N 6 7 3 4 1029.4 1030.9 0.0
28/02:30am 0.5 -2.8 -1.3 88 0.7 NNW 6 7 3 4 1029.5 - 0.0
28/02:00am 0.1 -3.8 -1.2 91 0.5 E 9 13 5 7 1029.5 - 0.0
28/01:30am 1.7 -1.6 -0.1 88 0.7 NW 7 11 4 6 1029.4 - 0.0
28/01:00am 1.6 -2.5 -0.3 87 0.7 NNW 11 15 6 8 1029.4 - 0.0
28/12:30am 1.0 -3.6 -0.8 88 0.7 NNW 13 15 7 8 1029.3 - 0.0
28/12:00am 1.5 -2.3 -0.6 86 0.8 NNW 9 15 5 8 1029.3 1030.8 0.0
 
Date/Time
EST
Temp
°C
App
Temp
°C
Dew
Point
Rel
Hum
%
Delta-T
°C
Wind Press
QNH
hPa
Press
MSL
hPa
Rain
since 9 am
mm
Dir
 
Spd
km/h
Gust
km/h
Spd
kts
Gust
kts
27/11:30pm 1.9 -2.6 0.0 87 0.7 N 13 17 7 9 1029.4 - 0.0
27/11:00pm 2.0 -3.3 -0.7 82 1.0 NNW 17 24 9 13 1029.6 - 0.0
27/10:30pm 2.8 -2.4 0.2 83 1.0 NW 17 20 9 11 1029.5 - 0.0

Other Formats:

Comma delimited format used in spreadsheet applications
http://www.bom.gov.au/fwo/IDN60801/IDN60801.94926.axf

JavaScript Object Notation format (JSON) in row-major order
http://www.bom.gov.au/fwo/IDN60801/IDN60801.94926.json